KBVY/BVY METAR and TAF weather

Enter ICAO airport designator
Station Type Date Time Source
KBVY METAR 2019/05/27 08:53 UTC NOAA

KBVY 270853Z AUTO 34006KT 10SM CLR 14/10 A2984 RMK AO2 SLP099 T01390100 53006


Station Type Date Time Source
KBVY Decoded METAR 2019/05/27 08:53 UTC NOAA

BEVERLY MUNICIPAL AIRPORT, MA, United States (KBVY) 42-35N 070-55W 28M
May 27, 2019 - 04:53 AM EDT / 2019.05.27 0853 UTC
Wind: from the NNW (340 degrees) at 7 MPH (6 KT):0
Visibility: 10 mile(s):0
Sky conditions: clear
Temperature: 57.0 F (13.9 C)
Dew Point: 50.0 F (10.0 C)
Relative Humidity: 77%
Pressure (altimeter): 29.84 in. Hg (1010 hPa)
Pressure tendency: 0.02 inches (0.6 hPa) higher than three hours ago
ob: KBVY 270853Z AUTO 34006KT 10SM CLR 14/10 A2984 RMK AO2 SLP099 T01390100 53006
cycle: 9

Station Type Date Time Source
KBVY TAF UTC NOAA

Error!

Example: see airport list